sensor_id;sensor_type;location;lat;lon;timestamp;temperature;humidity
10986;DHT22;5546;48.714;8.738;2023-01-20T00:01:00;2.50;92.70
10986;DHT22;5546;48.714;8.738;2023-01-20T00:03:25;2.30;92.80
10986;DHT22;5546;48.714;8.738;2023-01-20T00:05:51;2.60;93.20
10986;DHT22;5546;48.714;8.738;2023-01-20T00:08:17;2.40;93.00
10986;DHT22;5546;48.714;8.738;2023-01-20T00:10:42;2.50;92.40
10986;DHT22;5546;48.714;8.738;2023-01-20T00:13:08;2.50;92.70
10986;DHT22;5546;48.714;8.738;2023-01-20T00:15:34;2.80;92.70
10986;DHT22;5546;48.714;8.738;2023-01-20T00:17:59;2.70;92.40
10986;DHT22;5546;48.714;8.738;2023-01-20T00:20:25;2.50;92.30
10986;DHT22;5546;48.714;8.738;2023-01-20T00:22:50;2.50;92.60
10986;DHT22;5546;48.714;8.738;2023-01-20T00:25:16;2.50;92.80
10986;DHT22;5546;48.714;8.738;2023-01-20T00:27:41;2.40;92.90
10986;DHT22;5546;48.714;8.738;2023-01-20T00:30:07;2.50;93.00
10986;DHT22;5546;48.714;8.738;2023-01-20T00:32:39;2.60;92.80
10986;DHT22;5546;48.714;8.738;2023-01-20T00:35:10;2.40;92.50
10986;DHT22;5546;48.714;8.738;2023-01-20T00:37:36;2.40;92.80
10986;DHT22;5546;48.714;8.738;2023-01-20T00:40:01;2.80;92.70
10986;DHT22;5546;48.714;8.738;2023-01-20T00:42:27;2.60;93.10
10986;DHT22;5546;48.714;8.738;2023-01-20T00:44:53;2.60;92.80
10986;DHT22;5546;48.714;8.738;2023-01-20T00:47:18;2.50;93.00
10986;DHT22;5546;48.714;8.738;2023-01-20T00:49:45;2.50;93.00
10986;DHT22;5546;48.714;8.738;2023-01-20T00:52:11;2.70;93.10
10986;DHT22;5546;48.714;8.738;2023-01-20T00:54:36;2.80;92.90
10986;DHT22;5546;48.714;8.738;2023-01-20T00:57:02;2.90;92.90
10986;DHT22;5546;48.714;8.738;2023-01-20T00:59:27;3.20;92.30
10986;DHT22;5546;48.714;8.738;2023-01-20T01:01:53;3.00;92.80
10986;DHT22;5546;48.714;8.738;2023-01-20T01:04:18;2.90;92.60
10986;DHT22;5546;48.714;8.738;2023-01-20T01:06:44;2.50;93.30
10986;DHT22;5546;48.714;8.738;2023-01-20T01:09:09;2.40;93.60
10986;DHT22;5546;48.714;8.738;2023-01-20T01:11:35;2.50;94.00
10986;DHT22;5546;48.714;8.738;2023-01-20T01:14:00;2.50;93.80
10986;DHT22;5546;48.714;8.738;2023-01-20T01:16:26;2.20;94.00
10986;DHT22;5546;48.714;8.738;2023-01-20T01:18:53;2.20;94.20
10986;DHT22;5546;48.714;8.738;2023-01-20T01:21:19;2.40;94.00
10986;DHT22;5546;48.714;8.738;2023-01-20T01:23:46;2.30;94.10
10986;DHT22;5546;48.714;8.738;2023-01-20T01:26:11;2.70;93.40
10986;DHT22;5546;48.714;8.738;2023-01-20T01:28:37;2.70;93.70
10986;DHT22;5546;48.714;8.738;2023-01-20T01:31:04;3.10;92.50
10986;DHT22;5546;48.714;8.738;2023-01-20T01:33:31;3.10;92.30
10986;DHT22;5546;48.714;8.738;2023-01-20T01:36:01;3.00;92.60
10986;DHT22;5546;48.714;8.738;2023-01-20T01:38:27;3.00;92.80
10986;DHT22;5546;48.714;8.738;2023-01-20T01:40:54;2.90;92.70
10986;DHT22;5546;48.714;8.738;2023-01-20T01:43:23;2.80;93.00
10986;DHT22;5546;48.714;8.738;2023-01-20T01:45:50;2.80;92.80
10986;DHT22;5546;48.714;8.738;2023-01-20T01:48:17;2.80;93.00
10986;DHT22;5546;48.714;8.738;2023-01-20T01:51:02;3.00;92.30
10986;DHT22;5546;48.714;8.738;2023-01-20T01:53:30;3.00;92.60
10986;DHT22;5546;48.714;8.738;2023-01-20T01:56:00;3.00;92.30
10986;DHT22;5546;48.714;8.738;2023-01-20T01:58:30;2.40;92.80
10986;DHT22;5546;48.714;8.738;2023-01-20T02:00:56;2.40;93.10
10986;DHT22;5546;48.714;8.738;2023-01-20T02:03:22;2.40;92.60
10986;DHT22;5546;48.714;8.738;2023-01-20T02:05:51;2.40;92.90
10986;DHT22;5546;48.714;8.738;2023-01-20T02:08:18;2.50;93.00
10986;DHT22;5546;48.714;8.738;2023-01-20T02:10:43;2.60;92.80
10986;DHT22;5546;48.714;8.738;2023-01-20T02:13:09;2.40;92.90
10986;DHT22;5546;48.714;8.738;2023-01-20T02:15:43;2.30;93.10
10986;DHT22;5546;48.714;8.738;2023-01-20T02:18:23;2.40;92.90
10986;DHT22;5546;48.714;8.738;2023-01-20T02:21:14;2.40;93.10
10986;DHT22;5546;48.714;8.738;2023-01-20T02:26:53;2.30;92.80
10986;DHT22;5546;48.714;8.738;2023-01-20T02:29:41;2.20;93.00
10986;DHT22;5546;48.714;8.738;2023-01-20T02:35:20;1.90;93.40
10986;DHT22;5546;48.714;8.738;2023-01-20T02:40:50;1.90;93.50
10986;DHT22;5546;48.714;8.738;2023-01-20T02:43:31;1.80;93.40
10986;DHT22;5546;48.714;8.738;2023-01-20T02:46:00;1.60;93.30
10986;DHT22;5546;48.714;8.738;2023-01-20T02:49:22;1.60;93.60
10986;DHT22;5546;48.714;8.738;2023-01-20T02:51:32;1.80;93.30
10986;DHT22;5546;48.714;8.738;2023-01-20T02:54:03;1.80;93.20
10986;DHT22;5546;48.714;8.738;2023-01-20T02:56:31;2.00;93.00
10986;DHT22;5546;48.714;8.738;2023-01-20T02:59:05;2.10;92.80
10986;DHT22;5546;48.714;8.738;2023-01-20T03:01:46;1.90;92.90
10986;DHT22;5546;48.714;8.738;2023-01-20T03:04:17;1.70;92.90
10986;DHT22;5546;48.714;8.738;2023-01-20T03:06:48;1.70;93.30
10986;DHT22;5546;48.714;8.738;2023-01-20T03:09:17;2.40;93.20
10986;DHT22;5546;48.714;8.738;2023-01-20T03:11:51;2.00;92.40
10986;DHT22;5546;48.714;8.738;2023-01-20T03:14:19;2.00;92.70
10986;DHT22;5546;48.714;8.738;2023-01-20T03:16:45;1.90;92.60
10986;DHT22;5546;48.714;8.738;2023-01-20T03:19:12;2.00;92.80
10986;DHT22;5546;48.714;8.738;2023-01-20T03:21:39;2.30;92.20
10986;DHT22;5546;48.714;8.738;2023-01-20T03:24:05;2.00;92.30
10986;DHT22;5546;48.714;8.738;2023-01-20T03:26:31;1.70;92.40
10986;DHT22;5546;48.714;8.738;2023-01-20T03:28:57;1.70;92.70
10986;DHT22;5546;48.714;8.738;2023-01-20T03:31:27;1.80;92.60
10986;DHT22;5546;48.714;8.738;2023-01-20T03:33:56;1.80;92.40
10986;DHT22;5546;48.714;8.738;2023-01-20T03:36:25;1.70;92.50
10986;DHT22;5546;48.714;8.738;2023-01-20T03:38:52;2.00;92.70
10986;DHT22;5546;48.714;8.738;2023-01-20T03:41:46;1.60;92.50
10986;DHT22;5546;48.714;8.738;2023-01-20T03:50:06;1.20;92.70
10986;DHT22;5546;48.714;8.738;2023-01-20T03:58:11;1.30;92.50
10986;DHT22;5546;48.714;8.738;2023-01-20T04:00:42;1.30;92.40
10986;DHT22;5546;48.714;8.738;2023-01-20T04:03:14;1.10;92.80
10986;DHT22;5546;48.714;8.738;2023-01-20T04:05:41;1.10;92.60
10986;DHT22;5546;48.714;8.738;2023-01-20T04:08:09;1.10;92.80
10986;DHT22;5546;48.714;8.738;2023-01-20T04:10:38;1.50;92.40
10986;DHT22;5546;48.714;8.738;2023-01-20T04:13:04;1.50;92.10
10986;DHT22;5546;48.714;8.738;2023-01-20T04:15:41;1.20;92.50
10986;DHT22;5546;48.714;8.738;2023-01-20T04:18:17;1.30;92.70
10986;DHT22;5546;48.714;8.738;2023-01-20T04:20:46;1.30;92.90
10986;DHT22;5546;48.714;8.738;2023-01-20T04:23:38;1.50;92.80
10986;DHT22;5546;48.714;8.738;2023-01-20T04:26:04;1.40;92.80
10986;DHT22;5546;48.714;8.738;2023-01-20T04:28:30;1.90;93.00
10986;DHT22;5546;48.714;8.738;2023-01-20T04:30:56;1.60;92.60
10986;DHT22;5546;48.714;8.738;2023-01-20T04:33:22;1.50;92.60
10986;DHT22;5546;48.714;8.738;2023-01-20T04:35:47;1.70;92.80
10986;DHT22;5546;48.714;8.738;2023-01-20T04:38:13;1.70;92.60
10986;DHT22;5546;48.714;8.738;2023-01-20T04:40:38;1.90;92.00
10986;DHT22;5546;48.714;8.738;2023-01-20T04:43:04;1.90;92.20
10986;DHT22;5546;48.714;8.738;2023-01-20T04:45:29;2.10;92.10
10986;DHT22;5546;48.714;8.738;2023-01-20T04:47:55;1.90;92.00
10986;DHT22;5546;48.714;8.738;2023-01-20T04:50:20;1.90;91.80
10986;DHT22;5546;48.714;8.738;2023-01-20T04:52:46;1.90;91.40
10986;DHT22;5546;48.714;8.738;2023-01-20T04:55:12;1.90;91.70
10986;DHT22;5546;48.714;8.738;2023-01-20T04:57:37;2.10;91.50
10986;DHT22;5546;48.714;8.738;2023-01-20T05:00:05;2.10;91.60
10986;DHT22;5546;48.714;8.738;2023-01-20T05:02:31;2.20;91.40
10986;DHT22;5546;48.714;8.738;2023-01-20T05:04:56;2.20;91.60
10986;DHT22;5546;48.714;8.738;2023-01-20T05:07:22;2.10;91.50
10986;DHT22;5546;48.714;8.738;2023-01-20T05:09:48;2.10;91.70
10986;DHT22;5546;48.714;8.738;2023-01-20T05:12:14;2.00;92.10
10986;DHT22;5546;48.714;8.738;2023-01-20T05:14:39;1.70;92.20
10986;DHT22;5546;48.714;8.738;2023-01-20T05:17:05;1.70;92.50
10986;DHT22;5546;48.714;8.738;2023-01-20T05:19:30;1.80;92.40
10986;DHT22;5546;48.714;8.738;2023-01-20T05:21:56;1.80;92.90
10986;DHT22;5546;48.714;8.738;2023-01-20T05:24:23;1.70;92.70
10986;DHT22;5546;48.714;8.738;2023-01-20T05:26:48;1.60;92.20
10986;DHT22;5546;48.714;8.738;2023-01-20T05:29:14;1.40;92.60
10986;DHT22;5546;48.714;8.738;2023-01-20T05:31:39;1.70;92.50
10986;DHT22;5546;48.714;8.738;2023-01-20T05:36:33;1.80;91.50
10986;DHT22;5546;48.714;8.738;2023-01-20T05:38:59;1.80;91.50
10986;DHT22;5546;48.714;8.738;2023-01-20T05:41:24;1.70;91.80
10986;DHT22;5546;48.714;8.738;2023-01-20T05:43:52;2.10;92.20
10986;DHT22;5546;48.714;8.738;2023-01-20T05:46:18;2.00;91.80
10986;DHT22;5546;48.714;8.738;2023-01-20T05:48:44;1.70;91.70
10986;DHT22;5546;48.714;8.738;2023-01-20T05:51:09;1.90;91.80
10986;DHT22;5546;48.714;8.738;2023-01-20T05:53:35;1.90;92.00
10986;DHT22;5546;48.714;8.738;2023-01-20T05:56:02;1.90;91.50
10986;DHT22;5546;48.714;8.738;2023-01-20T05:58:29;2.00;91.50
10986;DHT22;5546;48.714;8.738;2023-01-20T06:00:54;2.00;91.80
10986;DHT22;5546;48.714;8.738;2023-01-20T06:03:27;2.10;91.00
10986;DHT22;5546;48.714;8.738;2023-01-20T06:05:59;2.00;91.20
10986;DHT22;5546;48.714;8.738;2023-01-20T06:08:24;1.90;91.70
10986;DHT22;5546;48.714;8.738;2023-01-20T06:10:52;1.70;91.70
10986;DHT22;5546;48.714;8.738;2023-01-20T06:13:17;1.40;91.80
10986;DHT22;5546;48.714;8.738;2023-01-20T06:15:43;1.60;91.70
10986;DHT22;5546;48.714;8.738;2023-01-20T06:18:08;1.80;91.20
10986;DHT22;5546;48.714;8.738;2023-01-20T06:20:37;2.00;90.70
10986;DHT22;5546;48.714;8.738;2023-01-20T06:23:03;1.80;90.60
10986;DHT22;5546;48.714;8.738;2023-01-20T06:25:28;1.70;90.60
10986;DHT22;5546;48.714;8.738;2023-01-20T06:27:54;1.80;90.60
10986;DHT22;5546;48.714;8.738;2023-01-20T06:30:20;1.60;90.60
10986;DHT22;5546;48.714;8.738;2023-01-20T06:32:46;1.50;90.80
10986;DHT22;5546;48.714;8.738;2023-01-20T06:35:12;1.10;91.00
10986;DHT22;5546;48.714;8.738;2023-01-20T06:37:38;1.10;91.30
10986;DHT22;5546;48.714;8.738;2023-01-20T06:40:04;1.00;91.50
10986;DHT22;5546;48.714;8.738;2023-01-20T06:42:30;0.80;91.60
10986;DHT22;5546;48.714;8.738;2023-01-20T06:44:56;0.80;91.90
10986;DHT22;5546;48.714;8.738;2023-01-20T06:47:22;0.70;91.90
10986;DHT22;5546;48.714;8.738;2023-01-20T06:49:47;0.40;92.20
10986;DHT22;5546;48.714;8.738;2023-01-20T06:52:13;0.50;92.30
10986;DHT22;5546;48.714;8.738;2023-01-20T06:54:38;0.40;92.40
10986;DHT22;5546;48.714;8.738;2023-01-20T06:57:04;0.80;91.80
10986;DHT22;5546;48.714;8.738;2023-01-20T06:59:30;0.70;91.90
10986;DHT22;5546;48.714;8.738;2023-01-20T07:01:55;0.50;91.70
10986;DHT22;5546;48.714;8.738;2023-01-20T07:04:21;0.30;92.10
10986;DHT22;5546;48.714;8.738;2023-01-20T07:06:46;0.40;92.00
10986;DHT22;5546;48.714;8.738;2023-01-20T07:09:12;0.20;91.90
10986;DHT22;5546;48.714;8.738;2023-01-20T07:11:38;0.40;91.40
10986;DHT22;5546;48.714;8.738;2023-01-20T07:14:05;0.40;91.70
10986;DHT22;5546;48.714;8.738;2023-01-20T07:16:30;0.60;91.00
10986;DHT22;5546;48.714;8.738;2023-01-20T07:18:56;0.60;91.20
10986;DHT22;5546;48.714;8.738;2023-01-20T07:21:22;0.40;91.30
10986;DHT22;5546;48.714;8.738;2023-01-20T07:23:48;0.10;92.00
10986;DHT22;5546;48.714;8.738;2023-01-20T07:26:16;0.20;92.00
10986;DHT22;5546;48.714;8.738;2023-01-20T07:28:42;0.20;92.20
10986;DHT22;5546;48.714;8.738;2023-01-20T07:31:14;0.40;91.90
10986;DHT22;5546;48.714;8.738;2023-01-20T07:33:40;0.30;91.70
10986;DHT22;5546;48.714;8.738;2023-01-20T07:36:07;0.60;92.10
10986;DHT22;5546;48.714;8.738;2023-01-20T07:38:33;0.20;92.30
10986;DHT22;5546;48.714;8.738;2023-01-20T07:41:01;0.20;92.20
10986;DHT22;5546;48.714;8.738;2023-01-20T07:43:26;0.50;91.90
10986;DHT22;5546;48.714;8.738;2023-01-20T07:45:56;0.50;91.70
10986;DHT22;5546;48.714;8.738;2023-01-20T07:48:23;0.70;91.80
10986;DHT22;5546;48.714;8.738;2023-01-20T07:50:54;0.70;91.70
10986;DHT22;5546;48.714;8.738;2023-01-20T07:53:26;1.10;91.10
10986;DHT22;5546;48.714;8.738;2023-01-20T07:55:52;1.10;91.40
10986;DHT22;5546;48.714;8.738;2023-01-20T07:58:17;1.30;91.50
10986;DHT22;5546;48.714;8.738;2023-01-20T08:00:43;1.40;90.50
10986;DHT22;5546;48.714;8.738;2023-01-20T08:03:13;1.60;90.20
10986;DHT22;5546;48.714;8.738;2023-01-20T08:05:38;1.50;90.20
10986;DHT22;5546;48.714;8.738;2023-01-20T08:08:04;1.50;90.50
10986;DHT22;5546;48.714;8.738;2023-01-20T08:10:30;1.70;90.40
10986;DHT22;5546;48.714;8.738;2023-01-20T08:12:56;1.50;90.40
10986;DHT22;5546;48.714;8.738;2023-01-20T08:15:22;1.60;90.70
10986;DHT22;5546;48.714;8.738;2023-01-20T08:17:52;1.70;90.30
10986;DHT22;5546;48.714;8.738;2023-01-20T08:20:18;1.80;90.60
10986;DHT22;5546;48.714;8.738;2023-01-20T08:22:43;1.90;90.00
10986;DHT22;5546;48.714;8.738;2023-01-20T08:25:09;1.90;90.40
10986;DHT22;5546;48.714;8.738;2023-01-20T08:27:34;2.30;90.10
10986;DHT22;5546;48.714;8.738;2023-01-20T08:30:00;2.30;89.60
10986;DHT22;5546;48.714;8.738;2023-01-20T08:32:25;2.50;89.40
10986;DHT22;5546;48.714;8.738;2023-01-20T08:34:51;2.50;89.90
10986;DHT22;5546;48.714;8.738;2023-01-20T08:37:17;2.50;89.30
10986;DHT22;5546;48.714;8.738;2023-01-20T08:39:42;2.20;90.00
10986;DHT22;5546;48.714;8.738;2023-01-20T08:42:07;2.40;90.00
10986;DHT22;5546;48.714;8.738;2023-01-20T08:44:33;2.80;89.50
10986;DHT22;5546;48.714;8.738;2023-01-20T08:46:58;3.10;89.00
10986;DHT22;5546;48.714;8.738;2023-01-20T08:49:24;3.00;89.50
10986;DHT22;5546;48.714;8.738;2023-01-20T08:51:50;3.00;89.30
10986;DHT22;5546;48.714;8.738;2023-01-20T08:54:15;3.20;89.00
10986;DHT22;5546;48.714;8.738;2023-01-20T08:56:41;2.90;88.40
10986;DHT22;5546;48.714;8.738;2023-01-20T08:59:07;3.50;87.70
10986;DHT22;5546;48.714;8.738;2023-01-20T09:01:34;3.50;88.30
10986;DHT22;5546;48.714;8.738;2023-01-20T09:04:02;4.00;85.30
10986;DHT22;5546;48.714;8.738;2023-01-20T09:06:30;4.00;85.80
10986;DHT22;5546;48.714;8.738;2023-01-20T09:08:56;3.30;85.80
10986;DHT22;5546;48.714;8.738;2023-01-20T09:11:22;3.60;86.70
10986;DHT22;5546;48.714;8.738;2023-01-20T09:13:49;3.30;86.70
10986;DHT22;5546;48.714;8.738;2023-01-20T09:16:16;3.30;86.10
10986;DHT22;5546;48.714;8.738;2023-01-20T09:18:43;3.30;86.70
10986;DHT22;5546;48.714;8.738;2023-01-20T09:21:12;3.80;85.60
10986;DHT22;5546;48.714;8.738;2023-01-20T09:23:38;3.80;86.50
10986;DHT22;5546;48.714;8.738;2023-01-20T09:26:06;3.70;85.90
10986;DHT22;5546;48.714;8.738;2023-01-20T09:28:32;3.60;86.40
10986;DHT22;5546;48.714;8.738;2023-01-20T09:30:59;3.70;86.40
10986;DHT22;5546;48.714;8.738;2023-01-20T09:33:26;3.70;87.10
10986;DHT22;5546;48.714;8.738;2023-01-20T09:35:56;4.30;85.30
10986;DHT22;5546;48.714;8.738;2023-01-20T09:38:22;4.60;85.80
10986;DHT22;5546;48.714;8.738;2023-01-20T09:41:26;4.80;83.60
10986;DHT22;5546;48.714;8.738;2023-01-20T09:44:23;4.90;84.20
10986;DHT22;5546;48.714;8.738;2023-01-20T09:46:58;4.70;85.00
10986;DHT22;5546;48.714;8.738;2023-01-20T09:49:56;4.10;85.00
10986;DHT22;5546;48.714;8.738;2023-01-20T09:52:42;4.10;85.70
10986;DHT22;5546;48.714;8.738;2023-01-20T10:01:03;3.60;87.10
10986;DHT22;5546;48.714;8.738;2023-01-20T10:03:41;4.30;88.30
10986;DHT22;5546;48.714;8.738;2023-01-20T10:06:19;4.40;89.20
10986;DHT22;5546;48.714;8.738;2023-01-20T10:09:04;7.40;82.90
10986;DHT22;5546;48.714;8.738;2023-01-20T10:11:37;7.90;81.70
10986;DHT22;5546;48.714;8.738;2023-01-20T10:16:57;11.90;67.60
10986;DHT22;5546;48.714;8.738;2023-01-20T10:22:22;15.50;60.30
10986;DHT22;5546;48.714;8.738;2023-01-20T10:24:59;17.20;54.70
10986;DHT22;5546;48.714;8.738;2023-01-20T10:27:28;18.00;52.10
10986;DHT22;5546;48.714;8.738;2023-01-20T10:30:03;18.90;50.60
10986;DHT22;5546;48.714;8.738;2023-01-20T10:32:38;20.00;47.70
10986;DHT22;5546;48.714;8.738;2023-01-20T10:35:14;18.60;48.00
10986;DHT22;5546;48.714;8.738;2023-01-20T10:37:41;19.30;47.60
10986;DHT22;5546;48.714;8.738;2023-01-20T10:43:00;19.80;44.90
10986;DHT22;5546;48.714;8.738;2023-01-20T10:45:42;18.30;47.00
10986;DHT22;5546;48.714;8.738;2023-01-20T10:51:13;17.00;49.70
10986;DHT22;5546;48.714;8.738;2023-01-20T10:56:45;15.10;52.30
10986;DHT22;5546;48.714;8.738;2023-01-20T10:59:36;14.00;53.60
10986;DHT22;5546;48.714;8.738;2023-01-20T11:02:25;14.00;54.30
10986;DHT22;5546;48.714;8.738;2023-01-20T11:04:56;12.70;57.50
10986;DHT22;5546;48.714;8.738;2023-01-20T11:07:22;11.90;59.30
10986;DHT22;5546;48.714;8.738;2023-01-20T11:09:48;11.40;60.80
10986;DHT22;5546;48.714;8.738;2023-01-20T11:12:16;11.40;62.30
10986;DHT22;5546;48.714;8.738;2023-01-20T11:14:44;11.60;62.30
10986;DHT22;5546;48.714;8.738;2023-01-20T11:17:16;11.60;63.00
10986;DHT22;5546;48.714;8.738;2023-01-20T11:19:46;11.70;62.10
10986;DHT22;5546;48.714;8.738;2023-01-20T11:22:19;11.60;62.60
10986;DHT22;5546;48.714;8.738;2023-01-20T11:24:47;10.90;64.00
10986;DHT22;5546;48.714;8.738;2023-01-20T11:27:20;9.70;67.00
10986;DHT22;5546;48.714;8.738;2023-01-20T11:29:51;9.50;68.70
10986;DHT22;5546;48.714;8.738;2023-01-20T11:34:56;8.80;72.40
10986;DHT22;5546;48.714;8.738;2023-01-20T11:37:40;8.80;72.00
10986;DHT22;5546;48.714;8.738;2023-01-20T11:40:22;8.80;72.20
10986;DHT22;5546;48.714;8.738;2023-01-20T11:42:49;8.80;73.00
10986;DHT22;5546;48.714;8.738;2023-01-20T11:50:38;7.30;78.40
10986;DHT22;5546;48.714;8.738;2023-01-20T11:53:23;6.90;80.70
10986;DHT22;5546;48.714;8.738;2023-01-20T11:55:52;6.90;81.30
10986;DHT22;5546;48.714;8.738;2023-01-20T11:58:23;6.70;82.70
10986;DHT22;5546;48.714;8.738;2023-01-20T12:01:03;6.80;83.40
10986;DHT22;5546;48.714;8.738;2023-01-20T12:03:44;7.10;83.00
10986;DHT22;5546;48.714;8.738;2023-01-20T12:06:24;7.20;82.70
10986;DHT22;5546;48.714;8.738;2023-01-20T12:09:09;7.50;83.50
10986;DHT22;5546;48.714;8.738;2023-01-20T12:11:58;8.10;82.50
10986;DHT22;5546;48.714;8.738;2023-01-20T12:14:46;8.50;81.70
10986;DHT22;5546;48.714;8.738;2023-01-20T12:17:40;8.60;74.00
10986;DHT22;5546;48.714;8.738;2023-01-20T12:20:18;8.40;78.80
10986;DHT22;5546;48.714;8.738;2023-01-20T12:25:32;9.10;75.40
10986;DHT22;5546;48.714;8.738;2023-01-20T12:28:11;9.20;76.00
10986;DHT22;5546;48.714;8.738;2023-01-20T12:30:54;9.20;70.30
10986;DHT22;5546;48.714;8.738;2023-01-20T12:33:27;9.20;73.40
10986;DHT22;5546;48.714;8.738;2023-01-20T12:41:24;8.10;78.90
10986;DHT22;5546;48.714;8.738;2023-01-20T12:46:54;7.60;78.50
10986;DHT22;5546;48.714;8.738;2023-01-20T12:49:45;7.60;79.30
10986;DHT22;5546;48.714;8.738;2023-01-20T12:52:37;7.20;82.80
10986;DHT22;5546;48.714;8.738;2023-01-20T13:00:33;7.10;75.50
10986;DHT22;5546;48.714;8.738;2023-01-20T13:03:24;7.10;77.90
10986;DHT22;5546;48.714;8.738;2023-01-20T13:06:16;7.10;79.00
10986;DHT22;5546;48.714;8.738;2023-01-20T13:09:05;6.90;81.50
10986;DHT22;5546;48.714;8.738;2023-01-20T13:14:31;6.80;81.10
10986;DHT22;5546;48.714;8.738;2023-01-20T13:19:44;6.20;83.60
10986;DHT22;5546;48.714;8.738;2023-01-20T13:22:16;6.00;83.10
10986;DHT22;5546;48.714;8.738;2023-01-20T13:24:46;6.00;84.30
10986;DHT22;5546;48.714;8.738;2023-01-20T13:27:13;6.20;85.00
10986;DHT22;5546;48.714;8.738;2023-01-20T13:29:41;6.50;80.70
10986;DHT22;5546;48.714;8.738;2023-01-20T13:34:59;5.90;84.30
10986;DHT22;5546;48.714;8.738;2023-01-20T13:39:53;5.40;87.50
10986;DHT22;5546;48.714;8.738;2023-01-20T13:47:55;5.50;88.30
10986;DHT22;5546;48.714;8.738;2023-01-20T13:50:40;5.10;88.70
10986;DHT22;5546;48.714;8.738;2023-01-20T13:58:20;4.70;90.50
10986;DHT22;5546;48.714;8.738;2023-01-20T14:00:54;4.40;90.70
10986;DHT22;5546;48.714;8.738;2023-01-20T14:05:49;4.20;91.40
10986;DHT22;5546;48.714;8.738;2023-01-20T14:08:15;4.20;91.70
10986;DHT22;5546;48.714;8.738;2023-01-20T14:10:41;4.50;91.30
10986;DHT22;5546;48.714;8.738;2023-01-20T14:13:11;4.30;91.40
10986;DHT22;5546;48.714;8.738;2023-01-20T14:15:40;4.30;91.70
10986;DHT22;5546;48.714;8.738;2023-01-20T14:18:13;4.50;91.50
10986;DHT22;5546;48.714;8.738;2023-01-20T14:20:39;4.60;91.00
10986;DHT22;5546;48.714;8.738;2023-01-20T14:25:57;4.80;90.50
10986;DHT22;5546;48.714;8.738;2023-01-20T14:28:22;4.70;90.70
10986;DHT22;5546;48.714;8.738;2023-01-20T14:30:48;5.00;90.30
10986;DHT22;5546;48.714;8.738;2023-01-20T14:33:14;5.20;90.20
10986;DHT22;5546;48.714;8.738;2023-01-20T14:35:40;5.20;90.50
10986;DHT22;5546;48.714;8.738;2023-01-20T14:38:17;4.80;90.90
10986;DHT22;5546;48.714;8.738;2023-01-20T14:40:43;5.10;90.30
10986;DHT22;5546;48.714;8.738;2023-01-20T14:43:19;5.30;90.30
10986;DHT22;5546;48.714;8.738;2023-01-20T14:45:48;5.30;90.50
10986;DHT22;5546;48.714;8.738;2023-01-20T14:48:16;5.10;88.70
10986;DHT22;5546;48.714;8.738;2023-01-20T14:50:44;5.50;89.70
10986;DHT22;5546;48.714;8.738;2023-01-20T14:53:13;5.30;90.00
10986;DHT22;5546;48.714;8.738;2023-01-20T14:55:40;5.40;89.70
10986;DHT22;5546;48.714;8.738;2023-01-20T14:58:14;5.40;90.10
10986;DHT22;5546;48.714;8.738;2023-01-20T15:00:48;5.70;90.10
10986;DHT22;5546;48.714;8.738;2023-01-20T15:03:17;5.60;90.10
10986;DHT22;5546;48.714;8.738;2023-01-20T15:11:22;5.90;90.10
10986;DHT22;5546;48.714;8.738;2023-01-20T15:16:23;6.00;89.10
10986;DHT22;5546;48.714;8.738;2023-01-20T15:21:48;5.40;90.60
10986;DHT22;5546;48.714;8.738;2023-01-20T15:24:16;5.70;90.40
10986;DHT22;5546;48.714;8.738;2023-01-20T15:26:43;5.70;90.10
10986;DHT22;5546;48.714;8.738;2023-01-20T15:29:23;5.60;90.20
10986;DHT22;5546;48.714;8.738;2023-01-20T15:31:49;5.60;90.80
10986;DHT22;5546;48.714;8.738;2023-01-20T15:34:16;5.70;90.50
10986;DHT22;5546;48.714;8.738;2023-01-20T15:36:43;5.70;90.80
10986;DHT22;5546;48.714;8.738;2023-01-20T15:39:13;5.90;90.70
10986;DHT22;5546;48.714;8.738;2023-01-20T15:41:39;5.60;90.80
10986;DHT22;5546;48.714;8.738;2023-01-20T15:44:05;5.40;90.90
10986;DHT22;5546;48.714;8.738;2023-01-20T15:46:31;5.60;90.50
10986;DHT22;5546;48.714;8.738;2023-01-20T15:48:57;5.60;90.80
10986;DHT22;5546;48.714;8.738;2023-01-20T15:51:22;5.80;90.40
10986;DHT22;5546;48.714;8.738;2023-01-20T15:56:27;5.60;90.50
10986;DHT22;5546;48.714;8.738;2023-01-20T15:58:53;5.50;90.60
10986;DHT22;5546;48.714;8.738;2023-01-20T16:01:21;5.50;90.90
10986;DHT22;5546;48.714;8.738;2023-01-20T16:03:49;5.70;90.70
10986;DHT22;5546;48.714;8.738;2023-01-20T16:06:21;5.50;90.70
10986;DHT22;5546;48.714;8.738;2023-01-20T16:08:48;5.50;91.00
10986;DHT22;5546;48.714;8.738;2023-01-20T16:11:14;4.40;92.20
10986;DHT22;5546;48.714;8.738;2023-01-20T16:13:40;4.50;92.60
10986;DHT22;5546;48.714;8.738;2023-01-20T16:16:12;4.20;93.00
10986;DHT22;5546;48.714;8.738;2023-01-20T16:18:38;4.40;93.50
10986;DHT22;5546;48.714;8.738;2023-01-20T16:21:04;4.40;93.10
10986;DHT22;5546;48.714;8.738;2023-01-20T16:23:30;4.90;91.90
10986;DHT22;5546;48.714;8.738;2023-01-20T16:25:56;5.00;91.40
10986;DHT22;5546;48.714;8.738;2023-01-20T16:28:22;4.80;91.60
10986;DHT22;5546;48.714;8.738;2023-01-20T16:30:49;4.80;91.90
10986;DHT22;5546;48.714;8.738;2023-01-20T16:33:20;5.00;91.10
10986;DHT22;5546;48.714;8.738;2023-01-20T16:35:49;4.90;91.00
10986;DHT22;5546;48.714;8.738;2023-01-20T16:38:16;5.20;91.40
10986;DHT22;5546;48.714;8.738;2023-01-20T16:41:01;4.80;91.40
10986;DHT22;5546;48.714;8.738;2023-01-20T16:43:27;4.40;91.70
10986;DHT22;5546;48.714;8.738;2023-01-20T16:45:53;4.20;92.00
10986;DHT22;5546;48.714;8.738;2023-01-20T16:48:22;4.10;92.20
10986;DHT22;5546;48.714;8.738;2023-01-20T16:50:48;4.30;92.10
10986;DHT22;5546;48.714;8.738;2023-01-20T16:53:16;4.30;91.80
10986;DHT22;5546;48.714;8.738;2023-01-20T16:55:43;3.80;92.40
10986;DHT22;5546;48.714;8.738;2023-01-20T16:58:10;3.70;92.60
10986;DHT22;5546;48.714;8.738;2023-01-20T17:00:36;3.50;92.90
10986;DHT22;5546;48.714;8.738;2023-01-20T17:03:01;4.20;92.90
10986;DHT22;5546;48.714;8.738;2023-01-20T17:05:27;3.80;92.40
10986;DHT22;5546;48.714;8.738;2023-01-20T17:07:56;4.10;92.30
10986;DHT22;5546;48.714;8.738;2023-01-20T17:10:23;4.10;92.50
10986;DHT22;5546;48.714;8.738;2023-01-20T17:12:51;4.20;91.50
10986;DHT22;5546;48.714;8.738;2023-01-20T17:15:17;4.10;91.90
10986;DHT22;5546;48.714;8.738;2023-01-20T17:17:45;4.10;92.10
10986;DHT22;5546;48.714;8.738;2023-01-20T17:20:11;4.40;91.90
10986;DHT22;5546;48.714;8.738;2023-01-20T17:22:38;3.80;92.30
10986;DHT22;5546;48.714;8.738;2023-01-20T17:25:06;3.90;92.10
10986;DHT22;5546;48.714;8.738;2023-01-20T17:27:32;4.10;92.10
10986;DHT22;5546;48.714;8.738;2023-01-20T17:29:57;4.00;91.90
10986;DHT22;5546;48.714;8.738;2023-01-20T17:32:23;3.90;92.20
10986;DHT22;5546;48.714;8.738;2023-01-20T17:34:48;3.70;92.60
10986;DHT22;5546;48.714;8.738;2023-01-20T17:37:14;3.60;92.90
10986;DHT22;5546;48.714;8.738;2023-01-20T17:39:41;3.70;92.70
10986;DHT22;5546;48.714;8.738;2023-01-20T17:42:06;3.80;92.40
10986;DHT22;5546;48.714;8.738;2023-01-20T17:44:32;3.80;92.40
10986;DHT22;5546;48.714;8.738;2023-01-20T17:46:57;3.80;92.70
10986;DHT22;5546;48.714;8.738;2023-01-20T17:49:23;4.10;92.30
10986;DHT22;5546;48.714;8.738;2023-01-20T17:51:48;3.90;92.30
10986;DHT22;5546;48.714;8.738;2023-01-20T17:54:14;4.30;92.60
10986;DHT22;5546;48.714;8.738;2023-01-20T17:56:39;3.80;92.40
10986;DHT22;5546;48.714;8.738;2023-01-20T17:59:05;3.90;92.70
10986;DHT22;5546;48.714;8.738;2023-01-20T18:01:31;4.00;92.20